sensor_id;sensor_type;location;lat;lon;timestamp;pressure;altitude;pressure_sealevel;temperature;humidity
3142;BME280;1581;51.568;6.998;2023-03-15T00:01:37;100412.03;;;3.63;100.00
3142;BME280;1581;51.568;6.998;2023-03-15T00:04:05;100417.59;;;3.60;100.00
3142;BME280;1581;51.568;6.998;2023-03-15T00:06:33;100421.72;;;3.80;100.00
3142;BME280;1581;51.568;6.998;2023-03-15T00:09:00;100419.53;;;3.76;100.00
3142;BME280;1581;51.568;6.998;2023-03-15T00:11:29;100427.69;;;3.65;100.00
3142;BME280;1581;51.568;6.998;2023-03-15T00:13:57;100430.94;;;3.41;100.00
3142;BME280;1581;51.568;6.998;2023-03-15T00:16:27;100432.97;;;3.47;100.00
3142;BME280;1581;51.568;6.998;2023-03-15T00:18:56;100436.34;;;3.40;100.00
3142;BME280;1581;51.568;6.998;2023-03-15T00:21:23;100443.56;;;3.73;100.00
3142;BME280;1581;51.568;6.998;2023-03-15T00:23:51;100442.81;;;3.80;100.00
3142;BME280;1581;51.568;6.998;2023-03-15T00:26:23;100439.44;;;3.36;100.00
3142;BME280;1581;51.568;6.998;2023-03-15T00:28:52;100439.13;;;3.38;100.00
3142;BME280;1581;51.568;6.998;2023-03-15T00:31:23;100439.59;;;3.34;100.00
3142;BME280;1581;51.568;6.998;2023-03-15T00:33:52;100447.91;;;3.12;100.00
3142;BME280;1581;51.568;6.998;2023-03-15T00:36:23;100445.81;;;3.33;100.00
3142;BME280;1581;51.568;6.998;2023-03-15T00:38:52;100453.06;;;3.48;100.00
3142;BME280;1581;51.568;6.998;2023-03-15T00:41:21;100448.75;;;3.30;100.00
3142;BME280;1581;51.568;6.998;2023-03-15T00:43:49;100445.59;;;3.61;100.00
3142;BME280;1581;51.568;6.998;2023-03-15T00:46:18;100454.31;;;3.44;100.00
3142;BME280;1581;51.568;6.998;2023-03-15T00:48:48;100457.06;;;3.52;100.00
3142;BME280;1581;51.568;6.998;2023-03-15T00:51:19;100460.72;;;3.42;100.00
3142;BME280;1581;51.568;6.998;2023-03-15T00:53:50;100466.06;;;3.33;100.00
3142;BME280;1581;51.568;6.998;2023-03-15T00:56:21;100457.41;;;3.40;100.00
3142;BME280;1581;51.568;6.998;2023-03-15T00:58:50;100467.34;;;3.46;100.00
3142;BME280;1581;51.568;6.998;2023-03-15T01:01:21;100458.06;;;3.25;100.00
3142;BME280;1581;51.568;6.998;2023-03-15T01:03:49;100467.09;;;3.22;100.00
3142;BME280;1581;51.568;6.998;2023-03-15T01:06:20;100465.25;;;3.49;100.00
3142;BME280;1581;51.568;6.998;2023-03-15T01:08:52;100464.84;;;3.44;100.00
3142;BME280;1581;51.568;6.998;2023-03-15T01:11:24;100471.63;;;3.30;100.00
3142;BME280;1581;51.568;6.998;2023-03-15T01:13:54;100467.81;;;3.41;100.00
3142;BME280;1581;51.568;6.998;2023-03-15T01:16:22;100465.25;;;3.49;100.00
3142;BME280;1581;51.568;6.998;2023-03-15T01:18:51;100468.56;;;3.69;100.00
3142;BME280;1581;51.568;6.998;2023-03-15T01:21:20;100458.84;;;3.69;100.00
3142;BME280;1581;51.568;6.998;2023-03-15T01:23:48;100451.84;;;3.43;100.00
3142;BME280;1581;51.568;6.998;2023-03-15T01:26:18;100451.91;;;3.51;100.00
3142;BME280;1581;51.568;6.998;2023-03-15T01:28:46;100464.72;;;3.63;100.00
3142;BME280;1581;51.568;6.998;2023-03-15T01:31:19;100456.06;;;3.36;100.00
3142;BME280;1581;51.568;6.998;2023-03-15T01:33:46;100468.09;;;3.38;100.00
3142;BME280;1581;51.568;6.998;2023-03-15T01:36:15;100465.19;;;3.41;100.00
3142;BME280;1581;51.568;6.998;2023-03-15T01:38:42;100465.38;;;3.31;100.00
3142;BME280;1581;51.568;6.998;2023-03-15T01:41:11;100464.84;;;3.44;100.00
3142;BME280;1581;51.568;6.998;2023-03-15T01:43:42;100471.94;;;3.61;100.00
3142;BME280;1581;51.568;6.998;2023-03-15T01:46:27;100476.28;;;3.36;100.00
3142;BME280;1581;51.568;6.998;2023-03-15T01:49:04;100479.56;;;3.20;100.00
3142;BME280;1581;51.568;6.998;2023-03-15T01:51:38;100482.13;;;3.39;100.00
3142;BME280;1581;51.568;6.998;2023-03-15T01:54:13;100494.66;;;3.28;100.00
3142;BME280;1581;51.568;6.998;2023-03-15T01:56:47;100492.28;;;3.07;100.00
3142;BME280;1581;51.568;6.998;2023-03-15T01:59:22;100492.53;;;3.14;100.00
3142;BME280;1581;51.568;6.998;2023-03-15T02:01:53;100499.97;;;3.18;100.00
3142;BME280;1581;51.568;6.998;2023-03-15T02:04:24;100489.81;;;3.23;100.00
3142;BME280;1581;51.568;6.998;2023-03-15T02:06:59;100499.34;;;3.07;100.00
3142;BME280;1581;51.568;6.998;2023-03-15T02:09:35;100504.84;;;3.13;100.00
3142;BME280;1581;51.568;6.998;2023-03-15T02:12:08;100501.41;;;3.13;100.00
3142;BME280;1581;51.568;6.998;2023-03-15T02:14:39;100504.66;;;3.24;100.00
3142;BME280;1581;51.568;6.998;2023-03-15T02:17:09;100506.69;;;3.30;100.00
3142;BME280;1581;51.568;6.998;2023-03-15T02:19:47;100507.22;;;3.34;100.00
3142;BME280;1581;51.568;6.998;2023-03-15T02:22:28;100500.75;;;3.28;100.00
3142;BME280;1581;51.568;6.998;2023-03-15T02:25:04;100509.41;;;3.38;100.00
3142;BME280;1581;51.568;6.998;2023-03-15T02:27:37;100511.16;;;3.20;100.00
3142;BME280;1581;51.568;6.998;2023-03-15T02:30:07;100508.00;;;3.17;100.00
3142;BME280;1581;51.568;6.998;2023-03-15T02:32:37;100505.47;;;3.25;100.00
3142;BME280;1581;51.568;6.998;2023-03-15T02:35:05;100505.88;;;3.30;100.00
3142;BME280;1581;51.568;6.998;2023-03-15T02:37:33;100508.31;;;3.14;100.00
3142;BME280;1581;51.568;6.998;2023-03-15T02:40:00;100504.50;;;2.99;100.00
3142;BME280;1581;51.568;6.998;2023-03-15T02:42:29;100518.34;;;3.01;100.00
3142;BME280;1581;51.568;6.998;2023-03-15T02:44:58;100516.16;;;2.96;100.00
3142;BME280;1581;51.568;6.998;2023-03-15T02:47:29;100520.56;;;3.05;100.00
3142;BME280;1581;51.568;6.998;2023-03-15T02:49:59;100525.13;;;3.03;100.00
3142;BME280;1581;51.568;6.998;2023-03-15T02:52:27;100517.19;;;3.13;100.00
3142;BME280;1581;51.568;6.998;2023-03-15T02:54:54;100530.16;;;3.24;100.00
3142;BME280;1581;51.568;6.998;2023-03-15T02:57:22;100528.50;;;3.23;100.00
3142;BME280;1581;51.568;6.998;2023-03-15T02:59:49;100538.63;;;3.18;100.00
3142;BME280;1581;51.568;6.998;2023-03-15T03:02:19;100539.81;;;3.33;100.00
3142;BME280;1581;51.568;6.998;2023-03-15T03:04:46;100534.72;;;3.66;100.00
3142;BME280;1581;51.568;6.998;2023-03-15T03:07:15;100543.53;;;3.57;100.00
3142;BME280;1581;51.568;6.998;2023-03-15T03:09:42;100553.41;;;3.72;100.00
3142;BME280;1581;51.568;6.998;2023-03-15T03:12:10;100558.81;;;3.88;100.00
3142;BME280;1581;51.568;6.998;2023-03-15T03:14:38;100563.25;;;3.70;100.00
3142;BME280;1581;51.568;6.998;2023-03-15T03:17:08;100560.56;;;3.36;100.00
3142;BME280;1581;51.568;6.998;2023-03-15T03:19:37;100568.00;;;3.40;100.00
3142;BME280;1581;51.568;6.998;2023-03-15T03:22:05;100579.09;;;3.43;100.00
3142;BME280;1581;51.568;6.998;2023-03-15T03:24:33;100582.31;;;3.82;100.00
3142;BME280;1581;51.568;6.998;2023-03-15T03:27:01;100576.84;;;3.48;100.00
3142;BME280;1581;51.568;6.998;2023-03-15T03:29:29;100580.59;;;3.46;100.00
3142;BME280;1581;51.568;6.998;2023-03-15T03:31:57;100591.53;;;3.51;100.00
3142;BME280;1581;51.568;6.998;2023-03-15T03:34:25;100596.25;;;3.47;100.00
3142;BME280;1581;51.568;6.998;2023-03-15T03:36:55;100601.59;;;3.55;100.00
3142;BME280;1581;51.568;6.998;2023-03-15T03:39:23;100608.16;;;3.96;100.00
3142;BME280;1581;51.568;6.998;2023-03-15T03:41:51;100598.88;;;3.92;100.00
3142;BME280;1581;51.568;6.998;2023-03-15T03:44:18;100604.69;;;3.78;100.00
3142;BME280;1581;51.568;6.998;2023-03-15T03:46:46;100608.63;;;3.64;100.00
3142;BME280;1581;51.568;6.998;2023-03-15T03:49:13;100622.81;;;3.63;100.00
3142;BME280;1581;51.568;6.998;2023-03-15T03:51:41;100622.59;;;3.92;100.00
3142;BME280;1581;51.568;6.998;2023-03-15T03:54:10;100618.69;;;3.78;100.00
3142;BME280;1581;51.568;6.998;2023-03-15T03:56:38;100627.03;;;3.47;100.00
3142;BME280;1581;51.568;6.998;2023-03-15T03:59:05;100633.34;;;3.63;100.00
3142;BME280;1581;51.568;6.998;2023-03-15T04:01:33;100632.34;;;3.38;100.00
3142;BME280;1581;51.568;6.998;2023-03-15T04:04:01;100633.78;;;3.76;100.00
3142;BME280;1581;51.568;6.998;2023-03-15T04:06:28;100632.84;;;3.50;100.00
3142;BME280;1581;51.568;6.998;2023-03-15T04:08:56;100640.75;;;3.24;100.00
3142;BME280;1581;51.568;6.998;2023-03-15T04:11:25;100636.28;;;3.51;100.00
3142;BME280;1581;51.568;6.998;2023-03-15T04:13:53;100634.75;;;3.58;100.00
3142;BME280;1581;51.568;6.998;2023-03-15T04:16:21;100636.00;;;3.54;100.00
3142;BME280;1581;51.568;6.998;2023-03-15T04:18:49;100643.81;;;3.73;100.00
3142;BME280;1581;51.568;6.998;2023-03-15T04:21:17;100654.63;;;3.70;100.00
3142;BME280;1581;51.568;6.998;2023-03-15T04:23:48;100644.72;;;3.54;100.00
3142;BME280;1581;51.568;6.998;2023-03-15T04:26:16;100642.19;;;3.36;100.00
3142;BME280;1581;51.568;6.998;2023-03-15T04:28:45;100645.59;;;3.19;100.00
3142;BME280;1581;51.568;6.998;2023-03-15T04:31:12;100659.56;;;3.29;100.00
3142;BME280;1581;51.568;6.998;2023-03-15T04:33:40;100659.88;;;3.16;100.00
3142;BME280;1581;51.568;6.998;2023-03-15T04:36:08;100653.28;;;3.03;100.00
3142;BME280;1581;51.568;6.998;2023-03-15T04:38:44;100658.69;;;3.38;100.00
3142;BME280;1581;51.568;6.998;2023-03-15T04:41:12;100659.97;;;3.34;100.00
3142;BME280;1581;51.568;6.998;2023-03-15T04:43:40;100665.00;;;3.18;100.00
3142;BME280;1581;51.568;6.998;2023-03-15T04:46:10;100666.53;;;3.11;100.00
3142;BME280;1581;51.568;6.998;2023-03-15T04:48:38;100661.22;;;3.30;100.00
3142;BME280;1581;51.568;6.998;2023-03-15T04:51:07;100663.88;;;3.20;100.00
3142;BME280;1581;51.568;6.998;2023-03-15T04:53:35;100661.22;;;3.20;100.00
3142;BME280;1581;51.568;6.998;2023-03-15T04:56:04;100662.00;;;3.03;100.00
3142;BME280;1581;51.568;6.998;2023-03-15T04:58:32;100674.97;;;3.14;100.00
3142;BME280;1581;51.568;6.998;2023-03-15T05:01:00;100682.34;;;3.01;100.00
3142;BME280;1581;51.568;6.998;2023-03-15T05:03:29;100677.88;;;3.11;100.00
3142;BME280;1581;51.568;6.998;2023-03-15T05:05:56;100678.94;;;2.82;100.00
3142;BME280;1581;51.568;6.998;2023-03-15T05:08:24;100682.88;;;3.05;100.00
3142;BME280;1581;51.568;6.998;2023-03-15T05:10:52;100686.41;;;2.77;100.00
3142;BME280;1581;51.568;6.998;2023-03-15T05:13:19;100689.78;;;2.69;100.00
3142;BME280;1581;51.568;6.998;2023-03-15T05:15:47;100693.50;;;2.76;100.00
3142;BME280;1581;51.568;6.998;2023-03-15T05:18:15;100695.97;;;2.78;100.00
3142;BME280;1581;51.568;6.998;2023-03-15T05:20:44;100699.56;;;2.77;100.00
3142;BME280;1581;51.568;6.998;2023-03-15T05:23:11;100707.19;;;2.80;100.00
3142;BME280;1581;51.568;6.998;2023-03-15T05:25:39;100709.28;;;2.76;100.00
3142;BME280;1581;51.568;6.998;2023-03-15T05:28:07;100712.59;;;2.78;100.00
3142;BME280;1581;51.568;6.998;2023-03-15T05:30:35;100720.91;;;2.93;100.00
3142;BME280;1581;51.568;6.998;2023-03-15T05:33:02;100721.75;;;2.84;100.00
3142;BME280;1581;51.568;6.998;2023-03-15T05:35:30;100738.19;;;2.95;100.00
3142;BME280;1581;51.568;6.998;2023-03-15T05:37:59;100742.34;;;2.98;100.00
3142;BME280;1581;51.568;6.998;2023-03-15T05:40:28;100744.72;;;3.01;100.00
3142;BME280;1581;51.568;6.998;2023-03-15T05:42:56;100740.97;;;2.94;100.00
3142;BME280;1581;51.568;6.998;2023-03-15T05:45:23;100749.56;;;2.77;100.00
3142;BME280;1581;51.568;6.998;2023-03-15T05:47:51;100751.09;;;2.79;100.00
3142;BME280;1581;51.568;6.998;2023-03-15T05:50:19;100761.03;;;3.04;100.00
3142;BME280;1581;51.568;6.998;2023-03-15T05:52:48;100763.53;;;3.06;100.00
3142;BME280;1581;51.568;6.998;2023-03-15T05:55:18;100763.38;;;3.17;100.00
3142;BME280;1581;51.568;6.998;2023-03-15T05:57:46;100786.22;;;3.35;100.00
3142;BME280;1581;51.568;6.998;2023-03-15T06:00:16;100783.03;;;3.32;100.00
3142;BME280;1581;51.568;6.998;2023-03-15T06:02:45;100788.59;;;3.10;100.00
3142;BME280;1581;51.568;6.998;2023-03-15T06:05:13;100794.25;;;3.15;100.00
3142;BME280;1581;51.568;6.998;2023-03-15T06:07:41;100795.94;;;3.16;100.00
3142;BME280;1581;51.568;6.998;2023-03-15T06:10:10;100803.78;;;3.35;100.00
3142;BME280;1581;51.568;6.998;2023-03-15T06:12:40;100803.94;;;3.42;100.00
3142;BME280;1581;51.568;6.998;2023-03-15T06:15:10;100802.56;;;3.38;100.00
3142;BME280;1581;51.568;6.998;2023-03-15T06:17:38;100813.91;;;3.48;100.00
3142;BME280;1581;51.568;6.998;2023-03-15T06:20:07;100817.16;;;3.79;100.00
3142;BME280;1581;51.568;6.998;2023-03-15T06:22:35;100811.56;;;3.91;100.00
3142;BME280;1581;51.568;6.998;2023-03-15T06:25:04;100817.09;;;4.24;100.00
3142;BME280;1581;51.568;6.998;2023-03-15T06:27:32;100819.38;;;4.10;100.00
3142;BME280;1581;51.568;6.998;2023-03-15T06:30:01;100829.78;;;4.12;100.00
3142;BME280;1581;51.568;6.998;2023-03-15T06:32:29;100822.38;;;3.98;100.00
3142;BME280;1581;51.568;6.998;2023-03-15T06:34:56;100818.16;;;4.05;100.00
3142;BME280;1581;51.568;6.998;2023-03-15T06:37:24;100817.47;;;4.29;100.00
3142;BME280;1581;51.568;6.998;2023-03-15T06:39:52;100828.72;;;4.05;100.00
3142;BME280;1581;51.568;6.998;2023-03-15T06:42:19;100829.59;;;3.86;100.00
3142;BME280;1581;51.568;6.998;2023-03-15T06:44:47;100827.72;;;3.69;100.00
3142;BME280;1581;51.568;6.998;2023-03-15T06:47:16;100828.94;;;3.84;100.00
3142;BME280;1581;51.568;6.998;2023-03-15T06:49:44;100839.50;;;4.11;100.00
3142;BME280;1581;51.568;6.998;2023-03-15T06:52:15;100841.38;;;3.92;100.00
3142;BME280;1581;51.568;6.998;2023-03-15T06:54:43;100853.69;;;4.01;100.00
3142;BME280;1581;51.568;6.998;2023-03-15T06:57:11;100853.22;;;4.15;100.00
3142;BME280;1581;51.568;6.998;2023-03-15T06:59:39;100858.31;;;4.52;100.00
3142;BME280;1581;51.568;6.998;2023-03-15T07:02:13;100866.03;;;4.63;100.00
3142;BME280;1581;51.568;6.998;2023-03-15T07:04:43;100863.78;;;4.41;100.00
3142;BME280;1581;51.568;6.998;2023-03-15T07:07:11;100878.22;;;4.47;100.00
3142;BME280;1581;51.568;6.998;2023-03-15T07:09:40;100886.00;;;4.48;100.00
3142;BME280;1581;51.568;6.998;2023-03-15T07:12:10;100880.22;;;4.35;100.00
3142;BME280;1581;51.568;6.998;2023-03-15T07:14:38;100891.97;;;4.68;100.00
3142;BME280;1581;51.568;6.998;2023-03-15T07:17:05;100900.31;;;4.90;100.00
3142;BME280;1581;51.568;6.998;2023-03-15T07:19:33;100904.03;;;4.70;100.00
3142;BME280;1581;51.568;6.998;2023-03-15T07:22:02;100905.38;;;4.57;100.00
3142;BME280;1581;51.568;6.998;2023-03-15T07:24:30;100904.97;;;4.79;100.00
3142;BME280;1581;51.568;6.998;2023-03-15T07:26:58;100910.72;;;4.74;100.00
3142;BME280;1581;51.568;6.998;2023-03-15T07:29:25;100908.94;;;5.09;100.00
3142;BME280;1581;51.568;6.998;2023-03-15T07:31:53;100904.28;;;5.38;100.00
3142;BME280;1581;51.568;6.998;2023-03-15T07:34:20;100904.91;;;4.44;100.00
3142;BME280;1581;51.568;6.998;2023-03-15T07:36:54;100912.09;;;4.96;100.00
3142;BME280;1581;51.568;6.998;2023-03-15T07:39:26;100919.88;;;5.14;100.00
3142;BME280;1581;51.568;6.998;2023-03-15T07:41:57;100925.66;;;4.56;100.00
3142;BME280;1581;51.568;6.998;2023-03-15T07:44:26;100930.50;;;4.88;100.00
3142;BME280;1581;51.568;6.998;2023-03-15T07:46:53;100937.25;;;5.17;100.00
3142;BME280;1581;51.568;6.998;2023-03-15T07:49:21;100947.75;;;5.26;100.00
3142;BME280;1581;51.568;6.998;2023-03-15T07:51:49;100945.66;;;5.65;100.00
3142;BME280;1581;51.568;6.998;2023-03-15T07:54:17;100959.25;;;5.52;100.00
3142;BME280;1581;51.568;6.998;2023-03-15T07:56:46;100958.50;;;5.77;100.00
3142;BME280;1581;51.568;6.998;2023-03-15T07:59:14;100968.34;;;5.75;100.00
3142;BME280;1581;51.568;6.998;2023-03-15T08:01:42;100973.50;;;5.42;100.00
3142;BME280;1581;51.568;6.998;2023-03-15T08:04:10;100987.56;;;5.42;100.00
3142;BME280;1581;51.568;6.998;2023-03-15T08:06:38;100992.22;;;5.31;100.00
3142;BME280;1581;51.568;6.998;2023-03-15T08:09:06;100986.63;;;5.34;100.00
3142;BME280;1581;51.568;6.998;2023-03-15T08:11:34;100998.84;;;4.91;100.00
3142;BME280;1581;51.568;6.998;2023-03-15T08:14:04;101004.97;;;5.35;100.00
3142;BME280;1581;51.568;6.998;2023-03-15T08:16:31;101013.69;;;5.63;100.00
3142;BME280;1581;51.568;6.998;2023-03-15T08:19:03;101013.41;;;5.21;100.00
3142;BME280;1581;51.568;6.998;2023-03-15T08:21:32;101019.94;;;5.27;100.00
3142;BME280;1581;51.568;6.998;2023-03-15T08:24:00;101019.13;;;5.44;100.00
3142;BME280;1581;51.568;6.998;2023-03-15T08:26:29;101014.06;;;5.50;100.00
3142;BME280;1581;51.568;6.998;2023-03-15T08:29:05;101019.81;;;5.63;100.00
3142;BME280;1581;51.568;6.998;2023-03-15T08:31:34;101021.72;;;5.26;100.00
3142;BME280;1581;51.568;6.998;2023-03-15T08:34:02;101022.81;;;5.51;100.00
3142;BME280;1581;51.568;6.998;2023-03-15T08:36:41;101028.75;;;5.18;100.00
3142;BME280;1581;51.568;6.998;2023-03-15T08:39:17;101031.63;;;5.42;100.00
3142;BME280;1581;51.568;6.998;2023-03-15T08:41:45;101044.47;;;5.81;100.00
3142;BME280;1581;51.568;6.998;2023-03-15T08:44:16;101046.22;;;6.07;100.00
3142;BME280;1581;51.568;6.998;2023-03-15T08:46:44;101052.59;;;6.40;100.00
3142;BME280;1581;51.568;6.998;2023-03-15T08:49:14;101051.19;;;6.79;100.00
3142;BME280;1581;51.568;6.998;2023-03-15T08:51:43;101051.63;;;6.99;100.00
3142;BME280;1581;51.568;6.998;2023-03-15T08:54:11;101061.75;;;6.71;100.00
3142;BME280;1581;51.568;6.998;2023-03-15T08:56:40;101058.88;;;6.21;100.00
3142;BME280;1581;51.568;6.998;2023-03-15T08:59:08;101056.84;;;5.81;100.00
3142;BME280;1581;51.568;6.998;2023-03-15T09:01:38;101067.91;;;6.11;100.00
3142;BME280;1581;51.568;6.998;2023-03-15T09:04:08;101077.88;;;7.10;100.00
3142;BME280;1581;51.568;6.998;2023-03-15T09:06:42;101077.03;;;7.51;100.00
3142;BME280;1581;51.568;6.998;2023-03-15T09:09:11;101070.50;;;6.46;100.00
3142;BME280;1581;51.568;6.998;2023-03-15T09:11:42;101077.84;;;6.34;100.00
3142;BME280;1581;51.568;6.998;2023-03-15T09:14:11;101078.22;;;6.65;100.00
3142;BME280;1581;51.568;6.998;2023-03-15T09:16:41;101077.31;;;6.48;100.00
3142;BME280;1581;51.568;6.998;2023-03-15T09:19:09;101082.03;;;7.21;100.00
3142;BME280;1581;51.568;6.998;2023-03-15T09:21:37;101092.88;;;7.84;100.00
3142;BME280;1581;51.568;6.998;2023-03-15T09:24:11;101085.31;;;7.56;100.00
3142;BME280;1581;51.568;6.998;2023-03-15T09:26:49;101088.94;;;7.47;100.00
3142;BME280;1581;51.568;6.998;2023-03-15T09:29:35;101097.09;;;7.12;100.00
3142;BME280;1581;51.568;6.998;2023-03-15T09:32:08;101096.69;;;6.31;100.00
3142;BME280;1581;51.568;6.998;2023-03-15T09:34:47;101097.41;;;6.84;100.00
3142;BME280;1581;51.568;6.998;2023-03-15T09:37:18;101099.69;;;5.84;100.00
3142;BME280;1581;51.568;6.998;2023-03-15T09:40:00;101102.81;;;5.97;100.00
3142;BME280;1581;51.568;6.998;2023-03-15T09:42:51;101105.13;;;6.52;100.00
3142;BME280;1581;51.568;6.998;2023-03-15T09:45:29;101105.66;;;6.81;100.00
3142;BME280;1581;51.568;6.998;2023-03-15T09:48:07;101115.59;;;6.19;100.00
3142;BME280;1581;51.568;6.998;2023-03-15T09:50:44;101110.38;;;5.92;100.00
3142;BME280;1581;51.568;6.998;2023-03-15T09:53:25;101108.47;;;5.85;100.00
3142;BME280;1581;51.568;6.998;2023-03-15T09:56:09;101111.41;;;6.34;100.00
3142;BME280;1581;51.568;6.998;2023-03-15T09:58:56;101102.41;;;6.87;100.00
3142;BME280;1581;51.568;6.998;2023-03-15T10:01:42;101099.44;;;7.65;100.00
3142;BME280;1581;51.568;6.998;2023-03-15T10:04:27;101106.50;;;8.05;100.00
3142;BME280;1581;51.568;6.998;2023-03-15T10:07:10;101104.28;;;7.77;100.00
3142;BME280;1581;51.568;6.998;2023-03-15T10:09:50;101096.91;;;8.84;100.00
3142;BME280;1581;51.568;6.998;2023-03-15T10:12:33;101107.56;;;8.36;100.00
3142;BME280;1581;51.568;6.998;2023-03-15T10:15:39;101103.59;;;8.56;100.00
3142;BME280;1581;51.568;6.998;2023-03-15T10:18:51;101112.06;;;8.52;100.00
3142;BME280;1581;51.568;6.998;2023-03-15T10:21:46;101110.31;;;9.06;100.00
3142;BME280;1581;51.568;6.998;2023-03-15T10:24:27;101111.97;;;9.07;99.51
3142;BME280;1581;51.568;6.998;2023-03-15T10:27:21;101115.09;;;9.27;99.86
3142;BME280;1581;51.568;6.998;2023-03-15T10:29:58;101109.75;;;8.33;94.66
3142;BME280;1581;51.568;6.998;2023-03-15T10:32:37;101118.19;;;8.44;97.62
3142;BME280;1581;51.568;6.998;2023-03-15T10:35:19;101112.03;;;8.36;97.76
3142;BME280;1581;51.568;6.998;2023-03-15T10:37:55;101111.06;;;8.53;100.00
3142;BME280;1581;51.568;6.998;2023-03-15T10:40:41;101117.19;;;8.61;97.75
3142;BME280;1581;51.568;6.998;2023-03-15T10:43:29;101124.66;;;8.57;96.90
3142;BME280;1581;51.568;6.998;2023-03-15T10:46:02;101120.75;;;9.24;94.76
3142;BME280;1581;51.568;6.998;2023-03-15T10:48:32;101128.56;;;9.63;90.55
3142;BME280;1581;51.568;6.998;2023-03-15T10:51:05;101128.84;;;9.38;81.69
3142;BME280;1581;51.568;6.998;2023-03-15T10:53:34;101128.38;;;9.73;83.30
3142;BME280;1581;51.568;6.998;2023-03-15T10:56:06;101128.72;;;9.70;79.39
3142;BME280;1581;51.568;6.998;2023-03-15T10:58:41;101126.84;;;10.09;82.95
3142;BME280;1581;51.568;6.998;2023-03-15T11:01:23;101121.91;;;10.28;74.87
3142;BME280;1581;51.568;6.998;2023-03-15T11:04:14;101130.81;;;10.57;75.52
3142;BME280;1581;51.568;6.998;2023-03-15T11:06:45;101135.16;;;10.58;65.34
3142;BME280;1581;51.568;6.998;2023-03-15T11:09:17;101130.97;;;10.78;64.38
3142;BME280;1581;51.568;6.998;2023-03-15T11:11:56;101130.63;;;10.81;65.15
3142;BME280;1581;51.568;6.998;2023-03-15T11:14:26;101134.75;;;10.84;66.35
3142;BME280;1581;51.568;6.998;2023-03-15T11:16:59;101142.69;;;9.64;68.99
3142;BME280;1581;51.568;6.998;2023-03-15T11:19:30;101144.41;;;8.31;74.47
3142;BME280;1581;51.568;6.998;2023-03-15T11:22:00;101145.69;;;8.99;75.41
3142;BME280;1581;51.568;6.998;2023-03-15T11:24:32;101148.84;;;9.64;72.29
3142;BME280;1581;51.568;6.998;2023-03-15T11:27:02;101157.34;;;10.28;71.89
3142;BME280;1581;51.568;6.998;2023-03-15T11:29:33;101158.03;;;9.54;71.62
3142;BME280;1581;51.568;6.998;2023-03-15T11:32:11;101159.53;;;9.48;78.43
3142;BME280;1581;51.568;6.998;2023-03-15T11:34:43;101155.84;;;9.11;74.53
3142;BME280;1581;51.568;6.998;2023-03-15T11:37:16;101166.34;;;10.27;67.25
3142;BME280;1581;51.568;6.998;2023-03-15T11:39:52;101170.03;;;11.08;63.37
3142;BME280;1581;51.568;6.998;2023-03-15T11:42:26;101162.53;;;10.00;58.76
3142;BME280;1581;51.568;6.998;2023-03-15T11:45:01;101164.34;;;9.91;58.01
3142;BME280;1581;51.568;6.998;2023-03-15T11:47:41;101165.91;;;11.34;60.82
3142;BME280;1581;51.568;6.998;2023-03-15T11:50:14;101168.44;;;12.14;62.67
3142;BME280;1581;51.568;6.998;2023-03-15T11:52:42;101159.03;;;11.40;56.36
3142;BME280;1581;51.568;6.998;2023-03-15T11:55:19;101153.09;;;12.02;56.56
3142;BME280;1581;51.568;6.998;2023-03-15T11:57:50;101157.19;;;12.19;58.38
3142;BME280;1581;51.568;6.998;2023-03-15T12:00:52;101160.19;;;12.09;54.98
3142;BME280;1581;51.568;6.998;2023-03-15T12:03:40;101162.25;;;11.35;58.53
3142;BME280;1581;51.568;6.998;2023-03-15T12:06:35;101166.06;;;11.55;54.86
3142;BME280;1581;51.568;6.998;2023-03-15T12:09:39;101158.06;;;11.04;51.14
3142;BME280;1581;51.568;6.998;2023-03-15T12:12:36;101163.94;;;11.65;50.04
3142;BME280;1581;51.568;6.998;2023-03-15T12:15:48;101164.38;;;11.69;48.98
3142;BME280;1581;51.568;6.998;2023-03-15T12:18:39;101165.63;;;12.37;48.67
3142;BME280;1581;51.568;6.998;2023-03-15T12:21:16;101165.97;;;10.75;46.77
3142;BME280;1581;51.568;6.998;2023-03-15T12:24:00;101156.22;;;10.45;48.47
3142;BME280;1581;51.568;6.998;2023-03-15T12:26:42;101158.72;;;10.69;49.57
3142;BME280;1581;51.568;6.998;2023-03-15T12:29:22;101161.25;;;11.36;51.27
3142;BME280;1581;51.568;6.998;2023-03-15T12:31:55;101157.47;;;10.57;50.50
3142;BME280;1581;51.568;6.998;2023-03-15T12:34:35;101158.66;;;9.64;46.76
3142;BME280;1581;51.568;6.998;2023-03-15T12:37:07;101155.19;;;10.69;48.72
3142;BME280;1581;51.568;6.998;2023-03-15T12:39:43;101155.63;;;10.80;49.22
3142;BME280;1581;51.568;6.998;2023-03-15T12:42:59;101151.56;;;10.84;53.83
3142;BME280;1581;51.568;6.998;2023-03-15T12:45:45;101149.78;;;10.62;54.49
3142;BME280;1581;51.568;6.998;2023-03-15T12:48:23;101158.69;;;10.25;53.49
3142;BME280;1581;51.568;6.998;2023-03-15T12:51:01;101150.81;;;11.41;49.56
3142;BME280;1581;51.568;6.998;2023-03-15T12:53:48;101151.66;;;11.42;48.85
3142;BME280;1581;51.568;6.998;2023-03-15T12:56:43;101147.59;;;10.66;50.77
3142;BME280;1581;51.568;6.998;2023-03-15T12:59:28;101156.75;;;10.63;51.36
3142;BME280;1581;51.568;6.998;2023-03-15T13:02:01;101150.69;;;10.02;49.97
3142;BME280;1581;51.568;6.998;2023-03-15T13:04:30;101157.03;;;10.24;50.10
3142;BME280;1581;51.568;6.998;2023-03-15T13:07:22;101150.63;;;11.14;49.01
3142;BME280;1581;51.568;6.998;2023-03-15T13:10:20;101159.75;;;10.83;49.96
3142;BME280;1581;51.568;6.998;2023-03-15T13:12:56;101157.28;;;11.61;47.58
3142;BME280;1581;51.568;6.998;2023-03-15T13:15:30;101152.56;;;12.27;46.14
3142;BME280;1581;51.568;6.998;2023-03-15T13:18:12;101163.81;;;13.68;47.72
3142;BME280;1581;51.568;6.998;2023-03-15T13:20:57;101153.63;;;13.16;44.80
3142;BME280;1581;51.568;6.998;2023-03-15T13:23:34;101159.88;;;13.64;42.30
3142;BME280;1581;51.568;6.998;2023-03-15T13:26:16;101171.75;;;18.75;34.42
3142;BME280;1581;51.568;6.998;2023-03-15T13:28:48;101203.53;;;25.83;24.49
3142;BME280;1581;51.568;6.998;2023-03-15T13:31:21;101184.47;;;20.51;29.39
3142;BME280;1581;51.568;6.998;2023-03-15T13:33:52;101179.13;;;17.00;32.00
3142;BME280;1581;51.568;6.998;2023-03-15T13:36:26;101181.53;;;17.57;32.14
3142;BME280;1581;51.568;6.998;2023-03-15T13:38:56;101186.94;;;17.93;32.22
3142;BME280;1581;51.568;6.998;2023-03-15T13:41:25;101183.41;;;17.92;31.84